Terminal Aerodrome Forecast
Issued by NWS

Home | Current Version | Previous Version | Text Only | Print | Product List | Glossary Off
Versions: 1 2 3 4 5 6 7 8 9 10 11 12 13 14 15 16 17

000
FTUS43 KABR 231300 AAA
TAFATY
TAF AMD
KATY 231356Z 2314/2412 13017G27KT P6SM OVC080
      TEMPO 2314/2316 P6SM -SHRA
     FM231600 14030G40KT P6SM BKN100
      TEMPO 2316/2318 P6SM -SHRA
     FM232300 15019KT P6SM VCTS BKN020 BKN050CB
     FM240700 27008KT 4SM BR BKN010=

USA.gov is the U.S. government's official web portal to all federal, state and local government web resources and services.